Time;durP1;ratioP1;P1;durP2;ratioP2;P2;SDS_P1;SDS_P2;PMS_P1;PMS_P2;Temp;Humidity;BMP_temperature;BMP_pressure;BME280_temperature;BME280_humidity;BME280_pressure;Samples;Min_cycle;Max_cycle;Signal;HPM_P1;HPM_P2
2022/11/11 00:01:52;;;;;;;28.58;17.88;;;;;;;9.34;100.00;62958.81;4907181;29;20235;-76
2022/11/11 00:04:19;;;;;;;28.30;17.42;;;;;;;9.38;100.00;62962.94;4896642;29;20213;-76
2022/11/11 00:06:47;;;;;;;24.05;17.67;;;;;;;9.44;100.00;62966.59;4912088;29;20410;-77
2022/11/11 00:09:15;;;;;;;28.73;18.08;;;;;;;9.45;100.00;62970.19;4897217;29;20235;-76
2022/11/11 00:11:42;;;;;;;27.30;18.95;;;;;;;9.48;100.00;62975.81;4897262;29;20218;-77
2022/11/11 00:14:09;;;;;;;24.65;17.27;;;;;;;9.49;100.00;62976.34;4914260;29;20234;-77
2022/11/11 00:27:31;;;;;;;30.88;18.17;;;;;;;9.51;100.00;62978.41;4909651;29;20234;-76
2022/11/11 00:29:58;;;;;;;37.13;20.83;;;;;;;9.50;100.00;62972.81;4889475;29;20226;-76
2022/11/11 00:32:26;;;;;;;30.83;18.98;;;;;;;9.47;100.00;62974.28;4891905;29;20275;-77
2022/11/11 00:37:39;;;;;;;34.85;20.90;;;;;;;9.37;100.00;62961.41;4909768;29;20221;-77
2022/11/11 00:40:09;;;;;;;34.08;20.77;;;;;;;9.30;100.00;62959.78;4897501;29;20437;-76
2022/11/11 00:42:36;;;;;;;33.88;21.23;;;;;;;9.32;100.00;62959.81;4908670;29;20223;-76
2022/11/11 00:45:03;;;;;;;36.00;21.85;;;;;;;9.28;100.00;62955.66;4907813;29;20210;-77
2022/11/11 00:53:03;;;;;;;34.35;21.13;;;;;;;9.32;100.00;62959.81;4902304;29;20262;-77
2022/11/11 00:55:32;;;;;;;31.33;20.05;;;;;;;9.33;100.00;62960.84;4912965;29;20432;-77
2022/11/11 00:57:58;;;;;;;33.83;20.70;;;;;;;9.37;100.00;62964.44;4909512;29;20231;-77
2022/11/11 01:00:25;;;;;;;33.65;21.25;;;;;;;9.31;100.00;62955.72;4911120;29;20202;-76
2022/11/11 01:02:52;;;;;;;34.67;20.92;;;;;;;9.38;100.00;62957.34;4904086;29;20553;-76
2022/11/11 01:05:20;;;;;;;34.88;21.75;;;;;;;9.47;100.00;62976.81;4896286;29;20476;-76
2022/11/11 01:07:49;;;;;;;30.38;19.48;;;;;;;9.47;100.00;62974.28;4913188;29;20223;-77
2022/11/11 01:10:37;;;;;;;32.00;21.35;;;;;;;9.49;100.00;62978.88;4912458;29;20213;-75
2022/11/11 01:13:12;;;;;;;34.28;21.73;;;;;;;9.50;100.00;62977.38;4896775;29;20261;-77
2022/11/11 01:15:39;;;;;;;40.40;21.58;;;;;;;9.56;100.00;62981.56;4903136;29;20451;-76
2022/11/11 01:18:07;;;;;;;35.58;21.67;;;;;;;9.59;100.00;62986.69;4910696;29;20199;-77
2022/11/11 01:20:36;;;;;;;35.15;19.85;;;;;;;9.61;100.00;62988.75;4905628;29;20222;-77
2022/11/11 01:23:04;;;;;;;35.08;21.35;;;;;;;9.63;100.00;62990.84;4889992;29;20204;-77
2022/11/11 01:25:34;;;;;;;32.65;21.60;;;;;;;9.58;100.00;62983.13;4892091;29;20207;-76
2022/11/11 01:28:01;;;;;;;35.25;19.58;;;;;;;9.53;100.00;62975.38;4891888;29;20457;-76
2022/11/11 01:30:32;;;;;;;37.75;20.77;;;;;;;9.62;100.00;62987.75;4902894;29;20217;-76
2022/11/11 01:32:59;;;;;;;30.98;19.75;;;;;;;9.51;100.00;62976.38;4904833;29;20229;-77
2022/11/11 01:35:26;;;;;;;37.63;22.08;;;;;;;9.51;100.00;62980.97;4892044;29;20274;-76
2022/11/11 01:37:53;;;;;;;34.47;20.25;;;;;;;9.45;100.00;62972.22;4893564;29;20223;-75
2022/11/11 01:40:20;;;;;;;33.03;19.95;;;;;;;9.47;100.00;62974.28;4902436;29;20274;-76
2022/11/11 01:42:49;;;;;;;29.02;18.88;;;;;;;9.48;100.00;62973.28;4895474;29;20279;-76
2022/11/11 01:45:49;;;;;;;33.67;21.13;;;;;;;9.37;100.00;62963.94;4892804;29;20206;-76
2022/11/11 01:51:13;;;;;;;37.60;20.98;;;;;;;9.30;100.00;62959.78;4903049;29;20222;-76
2022/11/11 01:53:40;;;;;;;31.55;20.27;;;;;;;9.28;100.00;62952.63;4893887;29;20539;-76
2022/11/11 01:56:09;;;;;;;39.40;21.00;;;;;;;9.24;100.00;62949.00;4896123;29;20227;-75
2022/11/11 01:58:38;;;;;;;36.95;22.00;;;;;;;9.29;100.00;62951.63;4910853;29;20380;-76
2022/11/11 02:01:06;;;;;;;33.80;21.27;;;;;;;9.24;100.00;62951.00;4899118;29;20243;-76
2022/11/11 02:03:38;;;;;;;38.60;23.35;;;;;;;9.17;100.00;62938.69;4892403;29;20207;-76
2022/11/11 02:06:04;;;;;;;36.65;22.55;;;;;;;9.22;100.00;62948.94;4905565;29;20227;-77
2022/11/11 02:08:35;;;;;;;35.95;22.25;;;;;;;9.18;100.00;62942.28;4910953;29;20495;-76
2022/11/11 02:11:07;;;;;;;37.25;23.80;;;;;;;9.21;100.00;62945.38;4912168;29;20289;-77
2022/11/11 02:16:24;;;;;;;39.13;23.27;;;;;;;9.12;100.00;62941.66;4893400;29;20234;-76
2022/11/11 02:18:51;;;;;;;38.70;23.88;;;;;;;9.13;100.00;62939.63;4892754;29;20583;-77
2022/11/11 02:21:25;;;;;;;43.70;24.70;;;;;;;9.15;100.00;62944.25;4893274;29;20287;-76
2022/11/11 02:24:02;;;;;;;41.10;23.88;;;;;;;9.14;100.00;62940.69;4900373;29;20296;-76
2022/11/11 02:26:32;;;;;;;46.03;25.25;;;;;;;9.13;100.00;62940.16;4910187;29;20265;-77
2022/11/11 02:29:00;;;;;;;43.85;25.95;;;;;;;9.06;100.00;62929.88;4913684;29;20206;-75
2022/11/11 02:31:28;;;;;;;43.70;24.33;;;;;;;9.03;100.00;62924.22;4910563;29;20270;-76
2022/11/11 02:33:55;;;;;;;43.80;24.38;;;;;;;8.96;100.00;62922.59;4898460;29;20239;-76
2022/11/11 02:36:23;;;;;;;42.00;25.50;;;;;;;8.98;100.00;62917.03;4911954;29;20219;-76
2022/11/11 02:38:50;;;;;;;42.00;25.00;;;;;;;8.99;100.00;62920.09;4915350;29;20425;-76
2022/11/11 02:44:03;;;;;;;44.70;23.40;;;;;;;9.08;100.00;62931.94;4911747;29;20206;-76
2022/11/11 02:46:30;;;;;;;37.78;23.15;;;;;;;9.17;100.00;62943.78;4909441;29;20233;-75
2022/11/11 02:48:57;;;;;;;34.35;21.65;;;;;;;9.24;100.00;62946.47;4912773;29;20529;-76
2022/11/11 02:51:24;;;;;;;32.92;21.45;;;;;;;9.43;100.00;62970.13;4895986;29;20359;-76
2022/11/11 02:53:51;;;;;;;21.60;16.30;;;;;;;9.40;100.00;62967.03;4898484;29;20314;-77
2022/11/11 02:59:00;;;;;;;32.35;20.35;;;;;;;9.46;100.00;62971.22;4911123;29;20247;-76
2022/11/11 03:01:26;;;;;;;31.75;21.38;;;;;;;9.51;100.00;62980.97;4909918;29;20428;-76
2022/11/11 03:03:53;;;;;;;32.35;20.55;;;;;;;9.53;100.00;62975.91;4898239;29;20198;-75
2022/11/11 03:06:20;;;;;;;33.75;19.88;;;;;;;9.65;100.00;62990.34;4910886;29;20241;-75
2022/11/11 03:08:47;;;;;;;29.60;18.83;;;;;;;9.73;100.00;62998.63;4908614;29;20251;-76
2022/11/11 03:11:14;;;;;;;27.33;18.83;;;;;;;9.79;100.00;63007.38;4900799;29;20229;-76
2022/11/11 03:13:42;;;;;;;27.92;18.90;;;;;;;9.92;100.00;63015.72;4891857;29;20249;-77
2022/11/11 03:17:38;;;;;;;29.17;19.50;;;;;;;10.02;100.00;63034.22;4909344;29;20285;-75
2022/11/11 03:18:55;;;;;;;22.48;15.85;;;;;;;10.16;100.00;63045.66;4908883;29;20495;-77
2022/11/11 03:21:21;;;;;;;30.40;19.25;;;;;;;10.27;100.00;63057.03;4911152;29;20262;-76
2022/11/11 03:23:48;;;;;;;29.33;18.88;;;;;;;10.41;100.00;63072.06;4910016;29;20498;-77
2022/11/11 03:26:14;;;;;;;29.13;17.77;;;;;;;10.52;100.00;63082.91;4909284;29;20555;-76
2022/11/11 03:28:43;;;;;;;25.75;16.98;;;;;;;10.63;100.00;63089.19;4912653;29;20202;-76
2022/11/11 03:31:09;;;;;;;28.83;17.40;;;;;;;10.63;100.00;63091.75;4911174;29;20223;-75
2022/11/11 03:33:36;;;;;;;26.13;18.20;;;;;;;10.64;100.00;63094.81;4909403;29;20238;-77
2022/11/11 03:36:03;;;;;;;24.92;16.63;;;;;;;10.69;100.00;63102.53;4911006;29;20226;-77
2022/11/11 03:38:29;;;;;;;27.45;18.27;;;;;;;10.74;100.00;63105.16;4910001;29;20387;-76
2022/11/11 03:40:57;;;;;;;23.90;15.88;;;;;;;10.80;100.00;63111.91;4909099;29;20227;-76
2022/11/11 03:43:26;;;;;;;27.90;16.73;;;;;;;10.82;100.00;63111.41;4913704;29;20210;-75
2022/11/11 03:45:56;;;;;;;24.33;16.95;;;;;;;10.77;100.00;63108.28;4908889;29;20251;-77
2022/11/11 03:48:23;;;;;;;25.58;16.23;;;;;;;10.76;100.00;63107.75;4904633;29;20238;-77
2022/11/11 03:50:51;;;;;;;23.10;16.35;;;;;;;10.64;100.00;63092.28;4892105;29;20244;-77
2022/11/11 03:53:19;;;;;;;22.77;16.15;;;;;;;10.71;100.00;63099.53;4890239;29;20301;-77
2022/11/11 03:55:47;;;;;;;24.90;17.88;;;;;;;10.67;100.00;63092.81;4908774;29;20198;-76
2022/11/11 03:58:14;;;;;;;27.48;16.88;;;;;;;10.57;100.00;63087.56;4909193;29;20207;-75
2022/11/11 04:00:42;;;;;;;24.05;17.02;;;;;;;10.58;100.00;63088.63;4911375;29;20511;-78
2022/11/11 04:11:29;;;;;;;32.08;18.27;;;;;;;10.37;100.00;63065.34;4891660;29;20262;-77
2022/11/11 04:16:46;;;;;;;30.92;19.15;;;;;;;10.26;100.00;63059.09;4903711;29;20223;-78
2022/11/11 04:21:58;;;;;;;33.15;19.02;;;;;;;10.20;100.00;63052.34;4902578;29;20276;-76
2022/11/11 04:27:11;;;;;;;28.83;18.35;;;;;;;10.36;100.00;63061.25;4902570;29;20571;-77
2022/11/11 04:29:37;;;;;;;25.83;17.30;;;;;;;10.33;100.00;63063.25;4910408;29;20486;-76
2022/11/11 04:34:53;;;;;;;28.52;18.23;;;;;;;10.26;100.00;63051.44;4908411;29;20274;-76
2022/11/11 04:37:22;;;;;;;29.25;18.95;;;;;;;10.33;100.00;63065.81;4908599;29;20454;-76
2022/11/11 04:42:34;;;;;;;34.40;20.63;;;;;;;10.38;100.00;63068.44;4907409;29;20245;-77
2022/11/11 04:47:54;;;;;;;32.30;20.95;;;;;;;10.41;100.00;63069.50;4894580;29;20234;-76
2022/11/11 04:50:22;;;;;;;30.92;19.48;;;;;;;10.34;100.00;63061.75;4896717;29;20209;-76
2022/11/11 04:52:49;;;;;;;30.10;19.23;;;;;;;10.34;100.00;63062.25;4903593;29;20227;-75
2022/11/11 04:58:01;;;;;;;23.85;16.65;;;;;;;10.33;100.00;63065.81;4892896;29;20224;-74
2022/11/11 05:00:28;;;;;;;22.55;16.15;;;;;;;10.42;100.00;63070.03;4903906;29;20199;-76
2022/11/11 05:11:10;;;;;;;19.25;12.93;;;;;;;10.35;100.00;63065.84;4912593;29;20464;-74
2022/11/11 05:22:03;;;;;;;23.15;15.38;;;;;;;10.33;100.00;63063.25;4913844;29;20263;-76
2022/11/11 05:27:14;;;;;;;28.98;16.90;;;;;;;10.28;100.00;63055.53;4910377;29;20241;-76
2022/11/11 05:29:41;;;;;;;26.30;16.95;;;;;;;10.34;100.00;63064.81;4911396;29;20207;-75
2022/11/11 05:32:08;;;;;;;27.63;17.20;;;;;;;10.36;100.00;63066.88;4910940;29;20226;-76
2022/11/11 05:34:35;;;;;;;29.73;18.05;;;;;;;10.35;100.00;63065.84;4912251;29;20261;-76
2022/11/11 05:37:04;;;;;;;32.80;19.80;;;;;;;10.48;100.00;63076.22;4913149;29;20242;-78
2022/11/11 05:39:31;;;;;;;24.13;16.15;;;;;;;10.38;100.00;63068.94;4898232;29;20203;-77
2022/11/11 05:41:57;;;;;;;24.02;16.98;;;;;;;10.56;100.00;63081.97;4896794;29;20223;-77
2022/11/11 05:44:24;;;;;;;28.80;18.83;;;;;;;10.53;100.00;63081.41;4894246;29;20211;-77
2022/11/11 05:46:51;;;;;;;25.85;17.27;;;;;;;10.47;100.00;63080.28;4900382;29;20226;-77
2022/11/11 05:49:18;;;;;;;27.50;18.05;;;;;;;10.47;100.00;63075.19;4915112;29;20202;-76
2022/11/11 05:51:45;;;;;;;27.75;18.63;;;;;;;10.55;100.00;63086.03;4915779;29;20270;-76
2022/11/11 05:54:14;;;;;;;32.88;20.02;;;;;;;10.49;100.00;63082.38;4909656;29;20287;-77
2022/11/11 05:56:41;;;;;;;29.70;19.73;;;;;;;10.64;100.00;63097.38;4894340;29;20223;-76
2022/11/11 05:59:08;;;;;;;31.27;19.38;;;;;;;10.65;100.00;63096.38;4892909;29;20207;-76
2022/11/11 06:01:36;;;;;;;30.52;19.63;;;;;;;10.55;100.00;63086.03;4895633;29;20226;-75
2022/11/11 06:04:03;;;;;;;29.52;19.73;;;;;;;10.47;100.00;63075.19;4900875;29;20207;-76
2022/11/11 06:06:30;;;;;;;30.65;19.83;;;;;;;10.42;100.00;63067.47;4892318;29;20571;-76
2022/11/11 06:08:57;;;;;;;34.33;20.75;;;;;;;10.42;100.00;63070.03;4895793;29;20206;-77
2022/11/11 06:11:26;;;;;;;30.38;20.67;;;;;;;10.46;100.00;63077.22;4892093;29;20231;-77
2022/11/11 06:13:53;;;;;;;34.35;20.25;;;;;;;10.41;100.00;63074.06;4908548;29;20246;-76
2022/11/11 06:16:20;;;;;;;30.48;20.45;;;;;;;10.41;100.00;63071.53;4912386;29;20535;-76
2022/11/11 06:18:48;;;;;;;30.95;20.67;;;;;;;10.38;100.00;63071.50;4911863;29;20211;-77
2022/11/11 06:21:16;;;;;;;30.10;20.77;;;;;;;10.34;100.00;63061.75;4906649;29;20246;-76
2022/11/11 06:23:43;;;;;;;35.90;21.20;;;;;;;10.29;100.00;63057.09;4893626;29;20215;-77
2022/11/11 06:26:13;;;;;;;32.35;20.23;;;;;;;10.26;100.00;63053.47;4893918;29;20227;-77
2022/11/11 06:28:43;;;;;;;35.15;19.58;;;;;;;10.17;100.00;63051.78;4892846;29;20226;-77
2022/11/11 06:31:12;;;;;;;37.22;21.42;;;;;;;10.15;100.00;63045.16;4892265;29;20219;-77
2022/11/11 06:33:39;;;;;;;34.47;21.25;;;;;;;10.22;100.00;63046.78;4895325;29;20204;-77
2022/11/11 06:36:08;;;;;;;32.60;20.42;;;;;;;10.15;100.00;63040.06;4895427;29;20285;-77
2022/11/11 06:38:35;;;;;;;37.17;20.90;;;;;;;10.00;100.00;63024.53;4892142;29;20203;-77
2022/11/11 06:41:02;;;;;;;34.65;21.60;;;;;;;10.12;100.00;63041.53;4893433;29;20551;-77
2022/11/11 06:43:30;;;;;;;36.72;21.70;;;;;;;10.28;100.00;63058.09;4892113;29;20204;-77
2022/11/11 06:45:59;;;;;;;36.67;22.23;;;;;;;10.31;100.00;63059.16;4893080;29;20238;-76
2022/11/11 06:48:28;;;;;;;35.05;22.02;;;;;;;10.35;100.00;63067.88;4893179;29;20242;-76
2022/11/11 06:51:00;;;;;;;37.90;21.40;;;;;;;10.17;100.00;63042.13;4891753;29;20231;-76
2022/11/11 06:53:28;;;;;;;34.50;22.25;;;;;;;10.01;100.00;63022.50;4893015;29;20251;-76
2022/11/11 06:55:55;;;;;;;37.00;22.08;;;;;;;10.04;100.00;63033.75;4912162;29;20246;-76
2022/11/11 06:58:23;;;;;;;38.08;23.05;;;;;;;10.04;100.00;63033.22;4910466;29;20266;-77
2022/11/11 07:00:50;;;;;;;33.80;21.30;;;;;;;10.15;100.00;63045.16;4910288;29;20210;-77
2022/11/11 07:03:20;;;;;;;32.70;21.55;;;;;;;10.26;100.00;63056.53;4910117;29;20249;-77
2022/11/11 07:05:47;;;;;;;40.05;22.00;;;;;;;10.47;100.00;63077.75;4910299;29;20214;-77
2022/11/11 07:08:17;;;;;;;35.85;22.27;;;;;;;10.47;100.00;63077.75;4910297;29;20391;-76
2022/11/11 07:10:45;;;;;;;31.83;20.95;;;;;;;10.32;100.00;63060.19;4910713;29;20214;-76
2022/11/11 07:13:13;;;;;;;34.50;19.70;;;;;;;10.29;100.00;63056.56;4897180;29;20346;-77
2022/11/11 07:15:40;;;;;;;34.45;21.55;;;;;;;10.18;100.00;63047.75;4907009;29;20254;-76
2022/11/11 07:18:06;;;;;;;32.47;20.60;;;;;;;10.11;100.00;63038.47;4910476;29;20206;-76
2022/11/11 07:20:36;;;;;;;36.70;22.20;;;;;;;10.12;100.00;63038.97;4906883;29;20204;-77
2022/11/11 07:23:03;;;;;;;34.15;21.23;;;;;;;10.27;100.00;63054.50;4890833;29;20382;-77
2022/11/11 07:25:30;;;;;;;37.10;20.85;;;;;;;10.23;100.00;63052.91;4893099;29;20259;-76
2022/11/11 07:27:57;;;;;;;33.70;21.10;;;;;;;10.23;100.00;63055.97;4892204;29;20219;-76
2022/11/11 07:30:23;;;;;;;32.13;19.92;;;;;;;9.96;100.00;63027.50;4900036;29;20248;-77
2022/11/11 07:32:52;;;;;;;28.95;17.55;;;;;;;10.10;100.00;63034.38;4911186;29;20223;-78
2022/11/11 07:35:20;;;;;;;30.67;17.23;;;;;;;10.18;100.00;63050.28;4909016;29;20292;-77
2022/11/11 07:37:49;;;;;;;23.38;15.38;;;;;;;10.12;100.00;63041.53;4909791;29;20531;-76
2022/11/11 07:40:18;;;;;;;19.70;14.10;;;;;;;10.07;100.00;63036.34;4893098;29;20203;-77
2022/11/11 07:42:45;;;;;;;24.40;15.88;;;;;;;10.04;100.00;63028.16;4892315;29;20234;-77
2022/11/11 07:45:13;;;;;;;20.17;12.93;;;;;;;9.93;100.00;63022.38;4892460;29;20251;-75
2022/11/11 07:47:42;;;;;;;24.15;15.48;;;;;;;10.00;100.00;63029.63;4892340;29;20223;-76
2022/11/11 07:50:09;;;;;;;19.20;13.10;;;;;;;10.07;100.00;63031.25;4890198;29;20255;-76
2022/11/11 07:52:36;;;;;;;21.13;13.77;;;;;;;10.13;100.00;63037.47;4890389;29;20264;-76
2022/11/11 07:55:05;;;;;;;22.75;13.75;;;;;;;10.09;100.00;63038.94;4891486;29;20246;-76
2022/11/11 07:57:32;;;;;;;17.15;12.00;;;;;;;10.09;100.00;63036.41;4899596;29;20226;-76
2022/11/11 07:59:59;;;;;;;17.60;11.63;;;;;;;10.09;100.00;63031.31;4893690;29;20207;-76
2022/11/11 08:02:26;;;;;;;30.52;15.82;;;;;;;10.16;100.00;63043.63;4892043;29;20242;-76
2022/11/11 08:04:53;;;;;;;23.67;15.38;;;;;;;10.04;100.00;63035.78;4890134;29;20256;-77
2022/11/11 08:07:20;;;;;;;20.75;13.60;;;;;;;10.01;100.00;63033.19;4891478;29;20231;-77
2022/11/11 08:09:46;;;;;;;22.90;15.63;;;;;;;10.06;100.00;63040.41;4891689;29;20232;-76
2022/11/11 08:14:59;;;;;;;21.70;13.90;;;;;;;9.95;100.00;63018.84;4892837;29;20266;-77
2022/11/11 08:17:26;;;;;;;21.25;15.02;;;;;;;10.08;100.00;63029.72;4910715;29;20223;-78
2022/11/11 08:19:53;;;;;;;21.65;13.15;;;;;;;10.08;100.00;63034.81;4911855;29;20578;-77
2022/11/11 08:22:19;;;;;;;20.67;13.27;;;;;;;10.04;100.00;63033.75;4909112;29;20293;-77
2022/11/11 08:24:46;;;;;;;17.55;13.57;;;;;;;10.01;100.00;63030.13;4891139;29;20222;-77
2022/11/11 08:27:14;;;;;;;19.38;13.45;;;;;;;9.96;100.00;63025.47;4895399;29;20237;-78
2022/11/11 08:29:41;;;;;;;18.38;13.13;;;;;;;10.04;100.00;63033.75;4905475;29;20195;-76
2022/11/11 08:32:08;;;;;;;21.20;13.77;;;;;;;10.13;100.00;63040.53;4906153;29;20231;-77
2022/11/11 08:34:35;;;;;;;27.38;14.20;;;;;;;10.03;100.00;63034.72;4891134;29;20437;-77
2022/11/11 08:37:02;;;;;;;18.60;11.98;;;;;;;9.98;100.00;63025.00;4897595;29;20246;-77
2022/11/11 08:39:29;;;;;;;21.90;13.50;;;;;;;10.04;100.00;63030.69;4908671;29;20213;-77
2022/11/11 08:41:56;;;;;;;22.60;13.57;;;;;;;10.16;100.00;63040.56;4905823;29;20226;-76
2022/11/11 08:44:24;;;;;;;22.35;14.38;;;;;;;10.12;100.00;63039.50;4899767;29;20230;-77
2022/11/11 08:46:51;;;;;;;16.38;11.82;;;;;;;10.16;100.00;63040.56;4897135;29;20323;-77
2022/11/11 08:49:18;;;;;;;21.80;13.32;;;;;;;10.17;100.00;63046.69;4908350;29;20247;-77
2022/11/11 08:51:45;;;;;;;18.63;12.15;;;;;;;10.17;100.00;63047.22;4910214;29;20219;-76
2022/11/11 08:54:12;;;;;;;23.50;13.68;;;;;;;10.27;100.00;63054.50;4897897;29;20215;-76
2022/11/11 08:56:39;;;;;;;19.33;12.48;;;;;;;10.33;100.00;63063.78;4904742;29;20222;-78
2022/11/11 08:59:07;;;;;;;18.77;12.15;;;;;;;10.38;100.00;63068.44;4892851;29;20202;-77
2022/11/11 09:01:35;;;;;;;16.67;11.95;;;;;;;10.48;100.00;63078.78;4892997;29;20222;-78
2022/11/11 09:04:02;;;;;;;15.07;11.40;;;;;;;10.55;100.00;63085.50;4904947;29;20664;-77
2022/11/11 09:06:29;;;;;;;18.10;12.10;;;;;;;10.74;100.00;63103.13;4899263;29;20263;-77
2022/11/11 09:08:56;;;;;;;14.10;10.80;;;;;;;10.76;100.00;63110.31;4909961;29;20203;-77
2022/11/11 09:11:23;;;;;;;13.88;10.32;;;;;;;10.91;100.00;63118.19;4903220;29;20457;-76
2022/11/11 09:13:50;;;;;;;14.52;10.52;;;;;;;10.99;100.00;63131.56;4908222;29;20211;-77
2022/11/11 09:16:16;;;;;;;14.23;11.10;;;;;;;11.18;100.00;63146.13;4895918;29;20246;-77
2022/11/11 09:18:46;;;;;;;14.02;11.27;;;;;;;11.17;100.00;63144.59;4902701;29;20399;-77
2022/11/11 09:21:13;;;;;;;15.68;11.00;;;;;;;11.15;100.00;63145.06;4910280;29;20359;-77
2022/11/11 09:23:39;;;;;;;13.65;10.00;;;;;;;11.19;100.00;63154.31;4908428;29;20203;-76
2022/11/11 09:26:06;;;;;;;14.77;9.88;;;;;;;11.25;100.00;63157.97;4907177;29;20267;-77
2022/11/11 09:28:34;;;;;;;14.30;9.52;;;;;;;11.23;100.00;63156.41;4909107;29;20209;-77
2022/11/11 09:31:02;;;;;;;14.30;10.32;;;;;;;11.19;100.00;63149.22;4906368;29;20223;-76
2022/11/11 09:33:29;;;;;;;12.98;10.23;;;;;;;11.27;100.00;63160.56;4893925;29;20211;-77
2022/11/11 09:35:57;;;;;;;10.38;8.27;;;;;;;11.18;100.00;63145.63;4890560;29;20243;-77
2022/11/11 09:38:24;;;;;;;11.55;8.55;;;;;;;11.24;100.00;63152.38;4890189;29;20365;-77
2022/11/11 09:41:02;;;;;;;11.35;8.35;;;;;;;11.24;100.00;63156.94;4896569;29;20215;-76
2022/11/11 09:43:41;;;;;;;12.30;8.85;;;;;;;11.36;100.00;63169.38;4909580;29;20254;-77
2022/11/11 09:46:20;;;;;;;12.82;8.85;;;;;;;11.39;100.00;63173.00;4907828;29;20293;-77
2022/11/11 09:49:02;;;;;;;10.25;7.47;;;;;;;11.46;100.00;63177.69;4908452;29;20207;-76
2022/11/11 09:51:33;;;;;;;13.15;9.80;;;;;;;11.63;100.00;63197.34;4909846;29;20222;-76
2022/11/11 09:54:06;;;;;;;11.32;9.02;;;;;;;11.94;100.00;63226.91;4908073;29;20203;-76
2022/11/11 09:56:33;;;;;;;9.90;8.23;;;;;;;12.00;100.00;63238.25;4897974;29;20343;-77
2022/11/11 09:59:06;;;;;;;9.52;7.40;;;;;;;11.76;100.00;63212.84;4897182;29;20226;-78
2022/11/11 10:01:42;;;;;;;8.80;7.57;;;;;;;11.93;100.00;63225.38;4892430;29;20223;-77
2022/11/11 10:04:23;;;;;;;10.82;8.70;;;;;;;11.69;100.00;63203.56;4892503;29;20256;-76
2022/11/11 10:06:55;;;;;;;17.20;9.07;;;;;;;11.55;100.00;63189.56;4895867;29;20235;-76
2022/11/11 10:09:29;;;;;;;10.60;8.63;;;;;;;11.35;100.00;63165.78;4912598;29;20259;-77
2022/11/11 10:12:07;;;;;;;14.45;9.10;;;;;;;11.46;100.00;63177.16;4910378;29;20226;-77
2022/11/11 10:14:38;;;;;;;15.00;10.85;;;;;;;11.47;100.00;63178.22;4913299;29;20210;-77
2022/11/11 10:17:15;;;;;;;14.18;9.95;;;;;;;11.55;100.00;63189.56;4913097;29;20222;-78
2022/11/11 10:19:56;;;;;;;11.40;8.80;;;;;;;11.60;100.00;63192.19;4908952;29;20241;-77
2022/11/11 10:22:31;;;;;;;11.38;9.02;;;;;;;11.81;100.00;63212.94;4910391;29;20222;-76
2022/11/11 10:25:08;;;;;;;10.75;9.05;;;;;;;11.99;100.00;63231.59;4906484;29;20265;-77
2022/11/11 10:27:35;;;;;;;8.65;7.30;;;;;;;12.06;99.89;63238.84;4901761;29;20227;-75
2022/11/11 10:30:15;;;;;;;9.73;7.63;;;;;;;12.06;98.89;63239.34;4895966;29;20214;-77
2022/11/11 10:32:42;;;;;;;7.88;6.53;;;;;;;12.03;98.16;63233.19;4901496;29;20271;-76
2022/11/11 10:35:17;;;;;;;9.25;7.38;;;;;;;11.61;100.00;63195.78;4901904;29;20289;-76
2022/11/11 10:37:46;;;;;;;7.18;6.18;;;;;;;11.74;99.87;63206.19;4892790;29;20523;-77
2022/11/11 10:40:19;;;;;;;9.15;7.60;;;;;;;12.00;98.22;63235.69;4906296;29;20207;-77
2022/11/11 10:42:46;;;;;;;7.78;6.85;;;;;;;11.86;98.71;63218.63;4912831;29;20222;-77
2022/11/11 10:45:22;;;;;;;11.23;6.28;;;;;;;11.66;100.00;63197.91;4904598;29;20230;-77
2022/11/11 10:47:57;;;;;;;9.25;7.75;;;;;;;11.74;100.00;63208.75;4902650;29;20397;-76
2022/11/11 10:50:30;;;;;;;12.57;7.93;;;;;;;11.68;100.00;63205.09;4911788;29;20213;-77
2022/11/11 10:53:03;;;;;;;7.25;6.53;;;;;;;11.35;100.00;63168.84;4913857;29;20224;-77
2022/11/11 10:55:38;;;;;;;11.77;7.28;;;;;;;11.65;100.00;63196.88;4893130;29;20260;-76
2022/11/11 10:58:13;;;;;;;12.63;7.45;;;;;;;11.75;100.00;63204.69;4890972;29;20195;-77
2022/11/11 11:00:41;;;;;;;9.13;7.53;;;;;;;11.66;100.00;63200.47;4893641;29;20258;-76
2022/11/11 11:03:22;;;;;;;8.98;7.18;;;;;;;11.66;99.19;63197.41;4897076;29;20250;-77
2022/11/11 11:05:53;;;;;;;10.02;7.30;;;;;;;11.55;98.34;63189.56;4900314;29;20204;-76
2022/11/11 11:08:26;;;;;;;7.90;6.35;;;;;;;11.69;97.87;63200.50;4893862;29;20520;-77
2022/11/11 11:10:57;;;;;;;7.38;6.20;;;;;;;11.77;95.95;63208.81;4894494;29;20191;-77
2022/11/11 11:13:32;;;;;;;10.30;7.28;;;;;;;11.91;94.91;63223.31;4892780;29;20216;-77
2022/11/11 11:16:07;;;;;;;9.63;7.18;;;;;;;11.88;95.00;63218.16;4896642;29;20540;-78
2022/11/11 11:18:34;;;;;;;9.07;6.72;;;;;;;12.10;93.87;63242.97;4910834;29;20202;-77
2022/11/11 11:21:02;;;;;;;8.02;7.03;;;;;;;12.16;92.81;63249.72;4913191;29;20226;-77
2022/11/11 11:23:38;;;;;;;8.05;6.35;;;;;;;12.28;90.51;63269.31;4896008;29;20231;-77
2022/11/11 11:26:06;;;;;;;6.88;6.28;;;;;;;12.19;88.88;63257.41;4891704;29;20225;-76
2022/11/11 11:28:34;;;;;;;6.70;6.00;;;;;;;12.32;88.72;63265.78;4894965;29;20208;-76
2022/11/11 11:31:02;;;;;;;6.50;5.80;;;;;;;12.47;86.16;63279.31;4890750;29;20234;-77
2022/11/11 11:33:50;;;;;;;5.95;5.45;;;;;;;12.45;84.51;63281.81;4891014;29;20207;-76
2022/11/11 11:36:18;;;;;;;6.68;5.53;;;;;;;12.56;83.79;63290.69;4893561;29;20283;-77
2022/11/11 11:38:49;;;;;;;6.60;6.00;;;;;;;12.43;83.88;63274.63;4903849;29;20496;-76
2022/11/11 11:41:17;;;;;;;6.20;5.70;;;;;;;12.52;84.02;63287.03;4910075;29;20226;-77
2022/11/11 11:43:45;;;;;;;6.63;5.65;;;;;;;12.20;83.73;63253.34;4911883;29;20229;-77
2022/11/11 11:46:20;;;;;;;6.07;5.43;;;;;;;12.29;82.68;63265.22;4906063;29;20222;-77
2022/11/11 11:49:04;;;;;;;5.97;5.38;;;;;;;12.38;81.06;63269.44;4892635;29;20207;-76
2022/11/11 11:51:36;;;;;;;5.20;4.70;;;;;;;12.54;79.04;63288.59;4896651;29;20223;-76
2022/11/11 11:54:23;;;;;;;7.57;5.82;;;;;;;12.75;78.03;63310.88;4890866;29;20211;-77
2022/11/11 11:56:53;;;;;;;5.45;4.95;;;;;;;12.85;76.43;63325.84;4896738;29;20234;-77
2022/11/11 11:59:27;;;;;;;6.07;5.47;;;;;;;12.68;76.20;63300.56;4909321;29;20207;-77
2022/11/11 12:02:05;;;;;;;5.18;4.78;;;;;;;12.39;77.67;63270.50;4912110;29;20240;-76
2022/11/11 12:04:52;;;;;;;4.93;4.53;;;;;;;12.40;77.71;63272.06;4909616;29;20204;-77
2022/11/11 12:07:32;;;;;;;6.22;5.00;;;;;;;12.52;77.36;63287.03;4911480;29;20285;-77
2022/11/11 12:10:08;;;;;;;5.40;4.65;;;;;;;12.28;78.50;63264.19;4910528;29;20251;-76
2022/11/11 12:12:45;;;;;;;5.43;4.90;;;;;;;12.25;78.42;63258.53;4908990;29;20225;-77
2022/11/11 12:15:26;;;;;;;6.18;4.80;;;;;;;12.20;78.72;63256.41;4903928;29;20213;-77
2022/11/11 12:18:08;;;;;;;5.40;4.90;;;;;;;12.07;79.67;63244.97;4909997;29;20222;-78
2022/11/11 12:20:45;;;;;;;6.93;5.68;;;;;;;12.16;80.29;63254.84;4906021;29;20226;-77
2022/11/11 12:23:39;;;;;;;6.72;5.53;;;;;;;12.11;81.17;63246.56;4901488;29;20199;-78
2022/11/11 12:26:17;;;;;;;6.03;5.35;;;;;;;12.29;80.42;63265.22;4905032;29;20234;-77
2022/11/11 12:29:00;;;;;;;5.68;5.00;;;;;;;12.24;80.52;63258.00;4908825;29;20505;-77
2022/11/11 12:31:40;;;;;;;6.95;5.97;;;;;;;12.32;79.76;63271.41;4907508;29;20454;-77
2022/11/11 12:34:21;;;;;;;6.20;5.47;;;;;;;12.26;79.93;63260.09;4910316;29;20202;-78
2022/11/11 12:36:56;;;;;;;6.40;5.32;;;;;;;12.27;79.71;63268.28;4909015;29;20244;-78
2022/11/11 12:39:36;;;;;;;5.15;4.68;;;;;;;12.30;79.51;63266.78;4902341;29;20203;-77
2022/11/11 12:42:15;;;;;;;7.03;6.18;;;;;;;12.22;79.85;63255.41;4892701;29;20223;-77
2022/11/11 12:44:53;;;;;;;6.30;5.70;;;;;;;11.94;82.51;63223.84;4890258;29;20244;-77
2022/11/11 12:47:36;;;;;;;12.60;5.53;;;;;;;12.09;81.63;63247.06;4890801;29;20231;-76
2022/11/11 12:50:15;;;;;;;5.60;5.03;;;;;;;11.84;82.95;63216.56;4892384;29;20439;-76